createdAt,value
2023-04-02T00:01:28.171Z,14.50
2023-04-02T00:04:14.815Z,16.10
2023-04-02T00:06:47.250Z,15.80
2023-04-02T00:09:33.563Z,14.50
2023-04-02T00:12:18.636Z,16.90
2023-04-02T00:14:55.108Z,14.20
2023-04-02T00:17:27.909Z,14.70
2023-04-02T00:20:06.837Z,17.40
2023-04-02T00:22:46.657Z,15.20
2023-04-02T00:25:19.069Z,18.00
2023-04-02T00:27:51.425Z,17.70
2023-04-02T00:30:24.011Z,19.20
2023-04-02T00:32:57.198Z,17.20
2023-04-02T00:35:30.586Z,20.30
2023-04-02T00:38:03.353Z,20.90
2023-04-02T00:40:35.446Z,24.10
2023-04-02T00:43:16.653Z,23.00
2023-04-02T00:45:55.086Z,22.50
2023-04-02T00:48:44.810Z,23.90
2023-04-02T00:51:24.755Z,24.20
2023-04-02T00:53:59.252Z,24.70
2023-04-02T00:56:38.847Z,22.10
2023-04-02T00:59:21.236Z,24.70
2023-04-02T01:02:01.870Z,22.30
2023-04-02T01:04:36.695Z,23.10
2023-04-02T01:07:12.494Z,24.50
2023-04-02T01:10:06.174Z,26.20
2023-04-02T01:12:49.939Z,28.30
2023-04-02T01:15:26.900Z,27.00
2023-04-02T01:18:19.770Z,25.40
2023-04-02T01:21:15.136Z,27.60
2023-04-02T01:23:58.850Z,25.20
2023-04-02T01:26:45.894Z,22.70
2023-04-02T01:29:21.541Z,23.40
2023-04-02T01:31:57.185Z,25.70
2023-04-02T01:34:30.074Z,29.40
2023-04-02T01:37:11.573Z,25.00
2023-04-02T01:39:57.824Z,23.80
2023-04-02T01:42:39.007Z,24.70
2023-04-02T01:45:14.617Z,25.90
2023-04-02T01:47:48.008Z,26.60
2023-04-02T01:50:32.272Z,26.40
2023-04-02T01:53:07.675Z,27.30
2023-04-02T01:58:19.716Z,28.80
2023-04-02T02:00:58.190Z,29.90
2023-04-02T02:03:31.310Z,28.40
2023-04-02T02:06:07.126Z,29.90
2023-04-02T02:08:46.923Z,29.80
2023-04-02T02:11:21.655Z,30.70
2023-04-02T02:13:57.933Z,28.40
2023-04-02T02:16:32.136Z,28.00
2023-04-02T02:19:06.130Z,31.00
2023-04-02T02:21:44.847Z,29.70
2023-04-02T02:24:24.750Z,33.40
2023-04-02T02:27:10.438Z,29.90
2023-04-02T02:29:47.219Z,29.90
2023-04-02T02:32:22.302Z,27.00
2023-04-02T02:35:02.163Z,28.90
2023-04-02T02:37:40.790Z,26.50
2023-04-02T02:40:19.699Z,29.50
2023-04-02T02:42:58.256Z,29.60
2023-04-02T02:45:35.367Z,26.80
2023-04-02T02:48:13.151Z,29.30
2023-04-02T02:50:46.306Z,29.50
2023-04-02T02:53:23.800Z,29.30
2023-04-02T02:56:02.309Z,27.10
2023-04-02T02:58:41.127Z,26.70
2023-04-02T03:01:29.153Z,28.60
2023-04-02T03:04:03.132Z,30.40
2023-04-02T03:06:36.803Z,29.60
2023-04-02T03:09:19.764Z,28.90
2023-04-02T03:11:59.355Z,27.00
2023-04-02T03:14:36.774Z,26.80
2023-04-02T03:17:17.357Z,24.90
2023-04-02T03:19:55.120Z,22.40
2023-04-02T03:22:35.519Z,23.40
2023-04-02T03:25:18.085Z,20.30
2023-04-02T03:27:53.028Z,22.10
2023-04-02T03:30:36.050Z,22.90
2023-04-02T03:33:14.398Z,23.40
2023-04-02T03:35:54.870Z,27.50
2023-04-02T03:38:32.243Z,23.30
2023-04-02T03:41:11.434Z,24.40
2023-04-02T03:43:48.012Z,21.40
2023-04-02T03:49:02.405Z,21.40
2023-04-02T03:51:39.306Z,17.90
2023-04-02T03:54:17.374Z,19.30
2023-04-02T03:56:50.611Z,16.90
2023-04-02T03:59:36.555Z,17.30
2023-04-02T04:02:28.344Z,14.60
2023-04-02T04:05:02.270Z,13.10
2023-04-02T04:07:39.889Z,13.80
2023-04-02T04:10:21.998Z,13.90
2023-04-02T04:12:56.458Z,13.60
2023-04-02T04:15:34.442Z,13.50
2023-04-02T04:18:13.867Z,9.00
2023-04-02T04:20:56.646Z,8.10
2023-04-02T04:23:36.060Z,7.50
2023-04-02T04:28:50.694Z,9.90
2023-04-02T04:31:30.956Z,9.00
2023-04-02T04:34:12.996Z,7.80
2023-04-02T04:36:54.695Z,8.20
2023-04-02T04:39:42.217Z,7.80
2023-04-02T04:42:21.009Z,7.50
2023-04-02T04:45:00.504Z,6.60
2023-04-02T04:47:37.233Z,6.10
2023-04-02T04:50:15.052Z,7.10
2023-04-02T04:52:47.202Z,5.90
2023-04-02T04:55:29.730Z,6.00
2023-04-02T04:58:17.033Z,5.30
2023-04-02T05:01:00.572Z,5.50
2023-04-02T05:03:39.272Z,6.40
2023-04-02T05:06:18.953Z,7.00
2023-04-02T05:08:53.876Z,6.00
2023-04-02T05:11:33.447Z,5.80
2023-04-02T05:14:12.628Z,8.90
2023-04-02T05:16:52.507Z,7.50
2023-04-02T05:19:31.152Z,7.10
2023-04-02T05:22:14.447Z,6.50
2023-04-02T05:25:00.871Z,6.60
2023-04-02T05:27:39.562Z,6.00
2023-04-02T05:30:36.534Z,6.60
2023-04-02T05:33:21.291Z,5.30
2023-04-02T05:36:01.793Z,5.00
2023-04-02T05:38:39.173Z,21.50
2023-04-02T05:41:22.734Z,59.60
2023-04-02T05:44:03.941Z,26.60
2023-04-02T05:46:43.621Z,26.60
2023-04-02T05:49:24.461Z,21.90
2023-04-02T05:52:02.031Z,75.50
2023-04-02T05:54:39.764Z,14.30
2023-04-02T05:57:16.735Z,10.50
2023-04-02T05:59:54.335Z,6.40
2023-04-02T06:02:32.840Z,8.80
2023-04-02T06:05:12.732Z,7.90
2023-04-02T06:07:47.814Z,10.20
2023-04-02T06:10:24.905Z,9.40
2023-04-02T06:13:03.588Z,13.90
2023-04-02T06:15:40.218Z,8.70
2023-04-02T06:18:21.915Z,21.10
2023-04-02T06:20:55.493Z,12.10
2023-04-02T06:23:33.497Z,6.00
2023-04-02T06:26:14.270Z,8.90
2023-04-02T06:28:49.272Z,9.10
2023-04-02T06:31:30.093Z,8.30
2023-04-02T06:34:02.882Z,16.50
2023-04-02T06:36:37.714Z,11.10
2023-04-02T06:39:19.673Z,6.60
2023-04-02T06:42:01.012Z,10.20
2023-04-02T06:44:59.894Z,11.20
2023-04-02T06:47:53.703Z,10.50
2023-04-02T06:50:39.612Z,16.80
2023-04-02T06:53:23.429Z,25.90
2023-04-02T06:56:02.122Z,12.50
2023-04-02T06:58:36.547Z,15.20
2023-04-02T07:01:13.301Z,21.30
2023-04-02T07:03:47.838Z,17.50
2023-04-02T07:06:26.135Z,23.70
2023-04-02T07:09:01.110Z,8.10
2023-04-02T07:11:34.111Z,37.80
2023-04-02T07:14:10.355Z,17.20
2023-04-02T07:16:43.859Z,15.40
2023-04-02T07:19:21.875Z,9.00
2023-04-02T07:21:57.763Z,26.80
2023-04-02T07:24:32.921Z,24.70
2023-04-02T07:27:05.104Z,16.90
2023-04-02T07:29:42.770Z,21.50
2023-04-02T07:32:15.612Z,18.00
2023-04-02T07:34:49.028Z,29.40
2023-04-02T07:37:21.102Z,13.30
2023-04-02T07:39:53.290Z,25.90
2023-04-02T07:42:25.916Z,9.70
2023-04-02T07:44:57.975Z,21.40
2023-04-02T07:47:31.056Z,8.70
2023-04-02T07:50:03.901Z,20.10
2023-04-02T07:52:38.126Z,12.90
2023-04-02T07:55:13.955Z,24.80
2023-04-02T07:57:51.816Z,11.60
2023-04-02T08:00:25.431Z,12.80
2023-04-02T08:02:57.795Z,9.40
2023-04-02T08:05:29.995Z,11.60
2023-04-02T08:08:02.037Z,10.80
2023-04-02T08:10:34.633Z,10.10
2023-04-02T08:13:07.591Z,9.40
2023-04-02T08:15:39.954Z,13.80
2023-04-02T08:18:12.862Z,12.50
2023-04-02T08:20:45.126Z,13.70
2023-04-02T08:23:18.224Z,13.70
2023-04-02T08:25:51.471Z,11.90
2023-04-02T08:28:24.331Z,14.80
2023-04-02T08:30:56.535Z,13.80
2023-04-02T08:33:28.746Z,15.50
2023-04-02T08:36:01.067Z,19.00
2023-04-02T08:38:33.170Z,18.30
2023-04-02T08:41:07.423Z,16.70
2023-04-02T08:44:09.776Z,18.30
2023-04-02T08:46:49.503Z,22.90
2023-04-02T08:49:30.378Z,23.00
2023-04-02T08:52:02.593Z,23.30
2023-04-02T08:54:38.212Z,28.80
2023-04-02T08:57:18.770Z,30.90
2023-04-02T08:59:59.331Z,18.90
2023-04-02T09:02:40.737Z,15.30
2023-04-02T09:05:24.459Z,18.70
2023-04-02T09:08:00.422Z,16.40
2023-04-02T09:10:41.802Z,17.80
2023-04-02T09:13:21.537Z,30.00
2023-04-02T09:15:59.193Z,24.20
2023-04-02T09:18:34.051Z,18.00
2023-04-02T09:21:19.877Z,17.20
2023-04-02T09:23:52.691Z,58.10
2023-04-02T09:26:27.551Z,50.80
2023-04-02T09:29:20.651Z,35.90
2023-04-02T09:32:01.075Z,40.10
2023-04-02T09:34:35.202Z,20.30
2023-04-02T09:37:15.733Z,21.50
2023-04-02T09:39:48.371Z,28.30
2023-04-02T09:42:35.238Z,45.90
2023-04-02T09:45:21.946Z,51.70
2023-04-02T09:47:56.941Z,50.30
2023-04-02T09:50:34.016Z,34.00
2023-04-02T09:53:31.422Z,26.20
2023-04-02T09:56:15.859Z,15.60
2023-04-02T09:59:03.860Z,11.40
2023-04-02T10:01:38.956Z,11.40
2023-04-02T10:04:39.197Z,10.50
2023-04-02T10:07:34.708Z,9.10
2023-04-02T10:10:20.526Z,12.40
2023-04-02T10:12:59.584Z,10.50
2023-04-02T10:15:36.973Z,11.30
2023-04-02T10:18:16.129Z,13.60
2023-04-02T10:20:51.526Z,11.00
2023-04-02T10:23:30.268Z,11.80
2023-04-02T10:26:14.851Z,11.80
2023-04-02T10:29:03.972Z,10.80
2023-04-02T10:31:53.058Z,11.30
2023-04-02T10:34:31.733Z,11.90
2023-04-02T10:37:15.337Z,15.80
2023-04-02T10:39:52.601Z,11.30
2023-04-02T10:42:32.955Z,7.20
2023-04-02T10:45:18.478Z,9.40
2023-04-02T10:48:02.144Z,8.00
2023-04-02T10:50:44.993Z,7.90
2023-04-02T10:53:20.645Z,8.60
2023-04-02T10:55:57.730Z,11.00
2023-04-02T10:58:32.965Z,9.80
2023-04-02T11:01:11.400Z,6.70
2023-04-02T11:03:49.020Z,7.50
2023-04-02T11:06:25.911Z,5.90
2023-04-02T11:09:03.349Z,5.70
2023-04-02T11:11:41.406Z,7.20
2023-04-02T11:14:20.414Z,6.30
2023-04-02T11:16:54.543Z,7.10
2023-04-02T11:19:32.737Z,6.30
2023-04-02T11:22:14.583Z,26.80
2023-04-02T11:24:49.877Z,34.70
2023-04-02T11:27:27.153Z,11.90
2023-04-02T11:30:07.271Z,6.60
2023-04-02T11:32:42.823Z,7.90
2023-04-02T11:35:37.639Z,6.80
2023-04-02T11:38:52.334Z,7.00
2023-04-02T11:42:06.718Z,13.80
2023-04-02T11:44:39.020Z,10.20
2023-04-02T11:47:22.660Z,10.90
2023-04-02T11:50:07.136Z,9.20
2023-04-02T11:52:55.023Z,10.60
2023-04-02T11:55:31.667Z,15.90
2023-04-02T11:58:39.866Z,39.10
2023-04-02T12:01:36.221Z,31.10
2023-04-02T12:04:50.205Z,22.00
2023-04-02T12:07:55.253Z,8.80
2023-04-02T12:10:34.528Z,12.80
2023-04-02T12:13:17.975Z,16.80
2023-04-02T12:15:53.267Z,21.10
2023-04-02T12:18:26.740Z,15.10
2023-04-02T12:20:59.718Z,23.50
2023-04-02T12:23:36.581Z,25.30
2023-04-02T12:26:25.825Z,31.40
2023-04-02T12:29:15.202Z,30.90
2023-04-02T12:31:49.238Z,43.60
2023-04-02T12:34:23.564Z,53.80
2023-04-02T12:36:59.686Z,43.40
2023-04-02T12:39:33.806Z,27.40
2023-04-02T12:42:06.781Z,25.90
2023-04-02T12:44:39.312Z,17.10
2023-04-02T12:47:14.919Z,62.50
2023-04-02T12:49:48.507Z,39.50
2023-04-02T12:52:23.054Z,27.30
2023-04-02T12:54:58.414Z,20.10
2023-04-02T12:57:39.804Z,16.50
2023-04-02T13:00:44.496Z,16.50
2023-04-02T13:03:23.074Z,8.60
2023-04-02T13:05:57.798Z,9.00
2023-04-02T13:08:33.343Z,11.00
2023-04-02T13:11:07.511Z,7.90
2023-04-02T13:13:41.482Z,8.10
2023-04-02T13:16:29.911Z,7.30
2023-04-02T13:21:54.922Z,8.00
2023-04-02T13:24:28.780Z,12.10
2023-04-02T13:27:03.058Z,12.00
2023-04-02T13:29:36.022Z,12.10
2023-04-02T13:32:13.437Z,11.10
2023-04-02T13:34:45.512Z,11.60
2023-04-02T13:37:17.580Z,16.00
2023-04-02T13:39:49.788Z,17.00
2023-04-02T13:42:22.083Z,24.40
2023-04-02T13:44:54.730Z,16.70
2023-04-02T13:47:27.058Z,10.80
2023-04-02T13:49:59.107Z,11.60
2023-04-02T13:52:31.727Z,32.90
2023-04-02T13:55:04.402Z,36.00
2023-04-02T13:57:36.727Z,17.30
2023-04-02T14:00:11.429Z,7.80
2023-04-02T14:02:47.564Z,8.40
2023-04-02T14:08:10.329Z,11.20
2023-04-02T14:10:58.817Z,9.90
2023-04-02T14:16:37.019Z,9.80
2023-04-02T14:19:29.695Z,10.80
2023-04-02T14:22:13.785Z,10.70
2023-04-02T14:24:56.140Z,11.10
2023-04-02T14:27:40.395Z,9.90
2023-04-02T14:30:22.341Z,8.20
2023-04-02T14:33:05.566Z,9.70
2023-04-02T14:35:40.046Z,11.00
2023-04-02T14:38:22.644Z,9.80
2023-04-02T14:41:00.937Z,10.10
2023-04-02T14:43:40.867Z,8.90
2023-04-02T14:46:13.148Z,9.10
2023-04-02T14:48:53.102Z,9.90
2023-04-02T14:51:32.000Z,8.70
2023-04-02T14:54:10.746Z,10.60
2023-04-02T14:56:51.093Z,8.50
2023-04-02T14:59:34.420Z,10.10
2023-04-02T15:02:15.646Z,9.20
2023-04-02T15:04:52.372Z,7.90
2023-04-02T15:07:30.177Z,8.80
2023-04-02T15:10:10.112Z,8.80
2023-04-02T15:12:45.192Z,9.00
2023-04-02T15:15:38.932Z,6.80
2023-04-02T15:18:16.337Z,10.80
2023-04-02T15:20:56.329Z,8.20
2023-04-02T15:23:40.483Z,8.80
2023-04-02T15:26:21.873Z,9.70
2023-04-02T15:29:02.355Z,7.60
2023-04-02T15:31:36.006Z,9.40
2023-04-02T15:34:26.804Z,8.70
2023-04-02T15:37:08.618Z,12.80
2023-04-02T15:39:49.772Z,11.60
2023-04-02T15:42:26.347Z,11.20
2023-04-02T15:45:24.049Z,9.70
2023-04-02T15:48:21.770Z,12.50
2023-04-02T15:51:05.100Z,9.50
2023-04-02T15:53:52.563Z,10.60
2023-04-02T15:56:41.569Z,15.70
2023-04-02T16:02:11.763Z,14.60
2023-04-02T16:04:52.993Z,10.40
2023-04-02T16:07:58.877Z,11.20
2023-04-02T16:10:41.821Z,27.70
2023-04-02T16:13:20.802Z,32.50
2023-04-02T16:15:56.723Z,19.30
2023-04-02T16:18:39.560Z,18.00
2023-04-02T16:21:17.176Z,46.70
2023-04-02T16:23:49.752Z,100.80
2023-04-02T16:26:33.331Z,86.40
2023-04-02T16:29:15.078Z,76.60
2023-04-02T16:31:55.075Z,43.40
2023-04-02T16:34:40.430Z,48.20
2023-04-02T16:37:20.516Z,49.10
2023-04-02T16:40:00.130Z,72.50
2023-04-02T16:42:43.573Z,78.70
2023-04-02T16:45:32.305Z,59.00
2023-04-02T16:48:15.632Z,58.60
2023-04-02T16:51:01.553Z,39.40
2023-04-02T16:53:58.318Z,38.00
2023-04-02T16:56:51.785Z,23.20
2023-04-02T16:59:33.863Z,15.00
2023-04-02T17:02:23.326Z,18.80
2023-04-02T17:05:03.909Z,13.60
2023-04-02T17:07:46.059Z,11.60
2023-04-02T17:10:30.352Z,9.90
2023-04-02T17:13:17.861Z,12.00
2023-04-02T17:15:56.213Z,9.90
2023-04-02T17:18:28.340Z,11.20
2023-04-02T17:21:06.197Z,6.90
2023-04-02T17:23:55.719Z,7.80
2023-04-02T17:26:31.330Z,8.40
2023-04-02T17:29:08.478Z,6.50
2023-04-02T17:31:42.330Z,5.60
2023-04-02T17:34:18.154Z,7.90
2023-04-02T17:36:58.404Z,5.70
2023-04-02T17:39:39.480Z,6.40
2023-04-02T17:42:22.209Z,6.40
2023-04-02T17:45:09.158Z,6.00
2023-04-02T17:47:52.576Z,6.90
2023-04-02T17:50:46.228Z,6.40
2023-04-02T17:53:31.883Z,7.60
2023-04-02T17:56:17.562Z,7.70
2023-04-02T17:59:13.807Z,6.50
2023-04-02T18:01:55.419Z,6.80
2023-04-02T18:04:42.938Z,5.40
2023-04-02T18:07:31.916Z,8.10
2023-04-02T18:10:14.404Z,6.30
2023-04-02T18:12:57.313Z,5.60
2023-04-02T18:15:59.375Z,8.60
2023-04-02T18:18:51.551Z,9.30
2023-04-02T18:21:31.759Z,12.30
2023-04-02T18:24:22.196Z,9.60
2023-04-02T18:27:06.315Z,11.30
2023-04-02T18:29:46.677Z,12.80
2023-04-02T18:32:36.208Z,14.60
2023-04-02T18:35:21.673Z,12.20
2023-04-02T18:38:12.818Z,10.20
2023-04-02T18:40:59.856Z,9.10
2023-04-02T18:43:43.465Z,8.20
2023-04-02T18:46:29.772Z,8.10
2023-04-02T18:49:07.091Z,8.30
2023-04-02T18:51:41.458Z,10.30
2023-04-02T18:54:23.852Z,10.50
2023-04-02T18:56:56.676Z,6.90
2023-04-02T18:59:39.650Z,6.30
2023-04-02T19:02:33.004Z,7.30
2023-04-02T19:05:23.303Z,5.40
2023-04-02T19:08:01.112Z,6.10
2023-04-02T19:10:35.901Z,6.10
2023-04-02T19:13:14.631Z,5.10
2023-04-02T19:16:07.872Z,6.60
2023-04-02T19:18:54.787Z,6.50
2023-04-02T19:21:36.956Z,6.10
2023-04-02T19:24:28.477Z,7.50
2023-04-02T19:27:06.663Z,5.40
2023-04-02T19:29:52.777Z,8.70
2023-04-02T19:32:33.817Z,5.80
2023-04-02T19:35:17.885Z,5.00
2023-04-02T19:38:00.716Z,5.80
2023-04-02T19:40:43.707Z,9.00
2023-04-02T19:43:16.615Z,8.30
2023-04-02T19:45:50.804Z,7.40
2023-04-02T19:48:26.763Z,6.20
2023-04-02T19:50:59.282Z,5.50
2023-04-02T19:53:31.817Z,7.10
2023-04-02T19:56:04.068Z,6.70
2023-04-02T19:58:37.337Z,5.20
2023-04-02T20:01:09.786Z,4.60
2023-04-02T20:03:42.447Z,5.60
2023-04-02T20:06:15.066Z,7.90
2023-04-02T20:08:47.980Z,6.10
2023-04-02T20:11:20.262Z,5.20
2023-04-02T20:13:52.960Z,5.60
2023-04-02T20:16:26.002Z,6.90
2023-04-02T20:18:58.242Z,4.40
2023-04-02T20:21:35.027Z,4.80
2023-04-02T20:24:08.008Z,5.30
2023-04-02T20:26:40.430Z,6.00
2023-04-02T20:29:12.628Z,6.90
2023-04-02T20:31:44.666Z,5.90
2023-04-02T20:34:17.291Z,6.20
2023-04-02T20:36:49.691Z,7.30
2023-04-02T20:39:22.018Z,7.20
2023-04-02T20:41:54.239Z,6.70
2023-04-02T20:44:26.978Z,6.50
2023-04-02T20:46:59.381Z,6.60
2023-04-02T20:49:31.555Z,5.60
2023-04-02T20:52:03.797Z,6.00
2023-04-02T20:54:35.950Z,5.40
2023-04-02T20:57:08.136Z,4.10
2023-04-02T20:59:40.509Z,10.80
2023-04-02T21:02:14.037Z,10.20
2023-04-02T21:04:46.524Z,9.40
2023-04-02T21:07:18.800Z,11.20
2023-04-02T21:09:51.942Z,11.90
2023-04-02T21:12:25.264Z,11.50
2023-04-02T21:15:01.034Z,24.90
2023-04-02T21:17:35.491Z,21.00
2023-04-02T21:20:10.156Z,20.50
2023-04-02T21:22:42.921Z,26.70
2023-04-02T21:25:15.710Z,19.60
2023-04-02T21:27:47.922Z,21.00
2023-04-02T21:30:20.412Z,30.00
2023-04-02T21:32:52.837Z,24.30
2023-04-02T21:35:25.392Z,28.20
2023-04-02T21:37:57.503Z,31.70
2023-04-02T21:40:29.729Z,31.10
2023-04-02T21:43:01.898Z,41.40
2023-04-02T21:45:34.565Z,35.60
2023-04-02T21:48:07.444Z,37.90
2023-04-02T21:50:39.660Z,33.80
2023-04-02T21:53:11.735Z,28.20
2023-04-02T21:55:43.789Z,39.80
2023-04-02T21:58:15.862Z,27.40
2023-04-02T22:00:48.472Z,33.50
2023-04-02T22:03:31.024Z,25.00
2023-04-02T22:06:12.149Z,25.10
2023-04-02T22:08:46.111Z,24.50
2023-04-02T22:11:20.026Z,29.50
2023-04-02T22:13:52.653Z,21.30
2023-04-02T22:16:26.736Z,23.20
2023-04-02T22:19:01.971Z,18.40
2023-04-02T22:21:34.668Z,13.30
2023-04-02T22:24:09.702Z,11.50
2023-04-02T22:26:42.660Z,10.00
2023-04-02T22:29:14.945Z,11.80
2023-04-02T22:31:47.184Z,11.10
2023-04-02T22:34:19.200Z,8.60
2023-04-02T22:36:53.234Z,9.30
2023-04-02T22:39:25.273Z,12.30
2023-04-02T22:41:57.375Z,11.60
2023-04-02T22:44:29.386Z,14.20
2023-04-02T22:47:01.408Z,13.10
2023-04-02T22:49:33.451Z,11.00
2023-04-02T22:52:07.009Z,9.30
2023-04-02T22:54:39.017Z,9.20
2023-04-02T22:57:11.471Z,9.70
2023-04-02T22:59:43.466Z,6.50
2023-04-02T23:02:16.088Z,8.00
2023-04-02T23:04:48.208Z,6.60
2023-04-02T23:07:20.224Z,8.80
2023-04-02T23:09:52.288Z,8.00
2023-04-02T23:12:24.265Z,7.20
2023-04-02T23:14:58.179Z,8.30
2023-04-02T23:17:30.382Z,8.30
2023-04-02T23:20:02.440Z,8.50
2023-04-02T23:22:36.948Z,8.30
2023-04-02T23:25:09.712Z,7.90
2023-04-02T23:27:41.964Z,7.40
2023-04-02T23:30:14.661Z,6.20
2023-04-02T23:32:46.790Z,7.30
2023-04-02T23:35:18.835Z,6.30
2023-04-02T23:37:52.716Z,5.30
2023-04-02T23:40:24.750Z,7.10
2023-04-02T23:42:56.774Z,5.80
2023-04-02T23:45:28.768Z,9.20
2023-04-02T23:48:00.875Z,5.80
2023-04-02T23:50:33.066Z,7.20
2023-04-02T23:53:05.060Z,6.80
2023-04-02T23:55:37.057Z,6.70
2023-04-02T23:58:09.219Z,5.20
